Impacts TAF Board INFO
FOR SITUATIONAL AWARENESS. NOT TO BE USED FOR FLIGHT PLANNING PURPOSES.
IDs:

KDEN - Denver Intl, CO, US

Issued at 1207 UTC 19 Jun 2018
Updated at 1237 UTC 19 Jun 2018
Potential Impact None Slight Moderate High
Time1153Z 19/13Z 19/14Z 19/15Z 19/16Z 19/17Z 19/18Z 19/19Z 19/20Z 19/21Z 19/22Z 19/23Z 20/00Z 20/01Z>>
Type OBS PRVL
  [TEMP]  
PRVL
  [TEMP]  
PRVL PRVL PRVL PRVL PRVL PRVL PRVL PRVL
  [TEMP]  
PRVL
  [TEMP]  
PRVL
  [TEMP]  
PRVL
  [TEMP]  
VIS 10 >6
  [5]  
>6
  [5]  
>6 >6 >6 >6 >6 >6 >6 >6
  [5]  
>6
  [5]  
>6
  [5]  
>6
  [5]  
CIG 31 35
  [10]  
35
  [10]  
20 20 20 40 40 40 70 70
  [50]  
70
  [50]  
70
  [50]  
70
  [50]  
Cover BKN BKN
  [BKN]  
BKN
  [BKN]  
BKN BKN BKN BKN BKN BKN BKN BKN
  [BKN]  
BKN
  [BKN]  
BKN
  [BKN]  
BKN
  [BKN]  
FltCat VFR VFR
  [MVFR]  
VFR
  [MVFR]  
MVFR MVFR MVFR VFR VFR VFR VFR VFR
  [MVFR]  
VFR
  [MVFR]  
VFR
  [MVFR]  
VFR
  [MVFR]  
WX -- --
  [-SHRA]  
--
  [-SHRA]  
-- -- -- -- -- -- -- --
  [+TSRA]  
--
  [+TSRA]  
--
  [+TSRA]  
--
  [+TSRA]  
WDir 130 120
[120]
120
[120]
90 90 90 90 90 90 90 90
[VRB]
90
[VRB]
90
[VRB]
90
[VRB]
WSpd 10 10
  [10]  
10
  [10]  
7 7 7 9 9 9 12 12
  [20]  
12
  [20]  
12
  [20]  
12
  [20]  
WGst -- --
  [--]  
--
  [--]  
-- -- -- -- -- -- -- --
  [30]  
--
  [30]  
--
  [30]  
--
  [30]  

Raw TAF
KDEN 191207Z 1912/2018 12010KT P6SM SCT010 BKN035
  TEMPO 1912/1915 5SM -SHRA BKN010
  FM191500 09007KT P6SM SCT008 BKN020
  FM191800 09009KT P6SM SCT020 BKN040
  FM192100 09012KT P6SM SCT040 BKN070
  TEMPO 1922/2002 VRB20G30KT 5SM +TSRA BKN050CB
  FM200300 08007KT P6SM SCT050 BKN100
  FM200700 VRB05KT P6SM VCFG FEW003 SCT100
  FM201200 24007KT P6SM FEW100


Raw METAR
KDEN 191153Z 13010KT 10SM FEW010 BKN031 BKN048 13/12 A3013 RMK AO2 SLP131 60000 T01330117 10172 20133 53005 $
KDEN 191144Z 12008KT 10SM FEW010 SCT029 BKN065 13/12 A3014 RMK AO2 T01330117 $
KDEN 191053Z 12012KT 10SM FEW008 BKN026 14/12 A3013 RMK AO2 DZE0959 SLP129 P0000 T01390122 $
KDEN 191014Z 09013KT 10SM SCT007 BKN017 OVC022 14/13 A3013 RMK AO2 DZE0959 P0000 T01440128 $
KDEN 190953Z 10011KT 10SM -DZ OVC007 14/13 A3012 RMK AO2 DZB0858 CIG 003V011 SLP127 P0000 T01440133 $

METAR Board
Radar Display
Forecast Discussion

FOR SITUATIONAL AWARENESS. NOT TO BE USED FOR FLIGHT PLANNING PURPOSES.